sensor_id;sensor_type;location;lat;lon;timestamp;pressure;altitude;pressure_sealevel;temperature;humidity
69772;BME280;57046;45.988;18.664;2023-03-18T00:00:41;101102.81;;;3.18;66.51
69772;BME280;57046;45.988;18.664;2023-03-18T00:03:06;101082.94;;;3.03;65.77
69772;BME280;57046;45.988;18.664;2023-03-18T00:05:32;101087.81;;;3.12;66.68
69772;BME280;57046;45.988;18.664;2023-03-18T00:07:58;101093.41;;;3.10;67.24
69772;BME280;57046;45.988;18.664;2023-03-18T00:10:23;101079.00;;;3.11;66.31
69772;BME280;57046;45.988;18.664;2023-03-18T00:12:49;101083.50;;;3.05;66.91
69772;BME280;57046;45.988;18.664;2023-03-18T00:15:14;101084.81;;;3.03;66.74
69772;BME280;57046;45.988;18.664;2023-03-18T00:17:40;101086.69;;;3.02;67.27
69772;BME280;57046;45.988;18.664;2023-03-18T00:20:10;101084.41;;;2.89;67.64
69772;BME280;57046;45.988;18.664;2023-03-18T00:22:37;101087.75;;;3.01;66.74
69772;BME280;57046;45.988;18.664;2023-03-18T00:25:04;101064.44;;;2.92;66.50
69772;BME280;57046;45.988;18.664;2023-03-18T00:27:30;101071.59;;;2.86;67.43
69772;BME280;57046;45.988;18.664;2023-03-18T00:29:55;101071.84;;;2.85;67.07
69772;BME280;57046;45.988;18.664;2023-03-18T00:32:21;101077.19;;;2.85;67.64
69772;BME280;57046;45.988;18.664;2023-03-18T00:34:46;101074.22;;;2.81;67.83
69772;BME280;57046;45.988;18.664;2023-03-18T00:37:12;101056.88;;;2.84;67.43
69772;BME280;57046;45.988;18.664;2023-03-18T00:39:37;101063.56;;;2.86;66.98
69772;BME280;57046;45.988;18.664;2023-03-18T00:42:02;101068.22;;;2.96;65.77
69772;BME280;57046;45.988;18.664;2023-03-18T00:44:28;101070.59;;;2.92;66.80
69772;BME280;57046;45.988;18.664;2023-03-18T00:46:53;101064.22;;;2.98;66.63
69772;BME280;57046;45.988;18.664;2023-03-18T00:49:18;101052.47;;;2.99;66.66
69772;BME280;57046;45.988;18.664;2023-03-18T00:51:44;101045.69;;;2.87;66.94
69772;BME280;57046;45.988;18.664;2023-03-18T00:54:11;101051.59;;;2.89;66.85
69772;BME280;57046;45.988;18.664;2023-03-18T00:56:37;101049.47;;;2.91;66.95
69772;BME280;57046;45.988;18.664;2023-03-18T00:59:04;101042.72;;;2.78;67.14
69772;BME280;57046;45.988;18.664;2023-03-18T01:01:29;101052.38;;;2.84;66.44
69772;BME280;57046;45.988;18.664;2023-03-18T01:03:55;101049.44;;;2.86;66.22
69772;BME280;57046;45.988;18.664;2023-03-18T01:06:24;101038.41;;;2.77;66.20
69772;BME280;57046;45.988;18.664;2023-03-18T01:08:50;101048.28;;;2.77;66.60
69772;BME280;57046;45.988;18.664;2023-03-18T01:11:16;101013.41;;;2.51;67.69
69772;BME280;57046;45.988;18.664;2023-03-18T01:13:41;101028.69;;;2.61;68.00
69772;BME280;57046;45.988;18.664;2023-03-18T01:16:08;101042.09;;;2.71;67.03
69772;BME280;57046;45.988;18.664;2023-03-18T01:18:34;101043.13;;;2.65;67.09
69772;BME280;57046;45.988;18.664;2023-03-18T01:20:59;101023.03;;;2.58;66.78
69772;BME280;57046;45.988;18.664;2023-03-18T01:23:25;101032.09;;;2.56;67.43
69772;BME280;57046;45.988;18.664;2023-03-18T01:25:50;101035.50;;;2.52;68.56
69772;BME280;57046;45.988;18.664;2023-03-18T01:28:16;101027.97;;;2.44;68.31
69772;BME280;57046;45.988;18.664;2023-03-18T01:30:42;101034.16;;;2.49;67.92
69772;BME280;57046;45.988;18.664;2023-03-18T01:33:08;101024.00;;;2.46;68.56
69772;BME280;57046;45.988;18.664;2023-03-18T01:35:35;101023.16;;;2.41;68.69
69772;BME280;57046;45.988;18.664;2023-03-18T01:38:02;101019.38;;;2.37;69.06
69772;BME280;57046;45.988;18.664;2023-03-18T01:40:30;101018.31;;;2.38;69.43
69772;BME280;57046;45.988;18.664;2023-03-18T01:43:03;101024.63;;;2.32;70.05
69772;BME280;57046;45.988;18.664;2023-03-18T01:45:29;101024.91;;;2.30;70.19
69772;BME280;57046;45.988;18.664;2023-03-18T01:47:55;101013.56;;;2.18;70.09
69772;BME280;57046;45.988;18.664;2023-03-18T01:50:24;101029.66;;;2.28;69.51
69772;BME280;57046;45.988;18.664;2023-03-18T01:52:54;101025.66;;;2.26;69.78
69772;BME280;57046;45.988;18.664;2023-03-18T01:55:23;101016.19;;;2.13;70.48
69772;BME280;57046;45.988;18.664;2023-03-18T01:57:49;101009.03;;;2.19;70.39
69772;BME280;57046;45.988;18.664;2023-03-18T02:00:15;101009.00;;;2.14;70.69
69772;BME280;57046;45.988;18.664;2023-03-18T02:02:43;101011.16;;;2.17;71.00
69772;BME280;57046;45.988;18.664;2023-03-18T02:05:11;100999.91;;;2.10;71.37
69772;BME280;57046;45.988;18.664;2023-03-18T02:07:40;100969.34;;;1.95;71.51
69772;BME280;57046;45.988;18.664;2023-03-18T02:10:13;100979.78;;;1.97;71.07
69772;BME280;57046;45.988;18.664;2023-03-18T02:12:42;101009.00;;;2.14;71.54
69772;BME280;57046;45.988;18.664;2023-03-18T02:15:13;101014.03;;;2.10;70.82
69772;BME280;57046;45.988;18.664;2023-03-18T02:17:51;100993.94;;;2.02;70.74
69772;BME280;57046;45.988;18.664;2023-03-18T02:20:42;101006.34;;;2.14;70.89
69772;BME280;57046;45.988;18.664;2023-03-18T02:23:28;101003.91;;;2.12;71.12
69772;BME280;57046;45.988;18.664;2023-03-18T02:26:12;101005.47;;;2.08;70.69
69772;BME280;57046;45.988;18.664;2023-03-18T02:28:41;101000.81;;;1.98;71.19
69772;BME280;57046;45.988;18.664;2023-03-18T02:31:10;101000.09;;;2.03;70.97
69772;BME280;57046;45.988;18.664;2023-03-18T02:33:37;100973.97;;;1.78;71.19
69772;BME280;57046;45.988;18.664;2023-03-18T02:36:08;101002.13;;;1.96;71.18
69772;BME280;57046;45.988;18.664;2023-03-18T02:38:40;101008.50;;;1.95;70.20
69772;BME280;57046;45.988;18.664;2023-03-18T02:41:14;101000.47;;;1.90;70.54
69772;BME280;57046;45.988;18.664;2023-03-18T02:43:40;100997.81;;;1.90;70.87
69772;BME280;57046;45.988;18.664;2023-03-18T02:48:59;100995.06;;;1.85;70.48
69772;BME280;57046;45.988;18.664;2023-03-18T02:51:26;100994.03;;;1.86;71.35
69772;BME280;57046;45.988;18.664;2023-03-18T02:53:56;100996.94;;;1.84;71.28
69772;BME280;57046;45.988;18.664;2023-03-18T02:56:23;100984.63;;;1.78;71.38
69772;BME280;57046;45.988;18.664;2023-03-18T02:58:48;100993.19;;;1.80;70.97
69772;BME280;57046;45.988;18.664;2023-03-18T03:01:13;100986.78;;;1.81;70.75
69772;BME280;57046;45.988;18.664;2023-03-18T03:03:39;100988.41;;;1.82;70.96
69772;BME280;57046;45.988;18.664;2023-03-18T03:06:05;100989.41;;;1.76;71.29
69772;BME280;57046;45.988;18.664;2023-03-18T03:08:30;100988.91;;;1.79;70.77
69772;BME280;57046;45.988;18.664;2023-03-18T03:10:56;100993.66;;;1.77;70.85
69772;BME280;57046;45.988;18.664;2023-03-18T03:13:23;100953.16;;;1.53;70.29
69772;BME280;57046;45.988;18.664;2023-03-18T03:15:48;100998.50;;;1.80;70.65
69772;BME280;57046;45.988;18.664;2023-03-18T03:18:14;100998.97;;;1.77;70.36
69772;BME280;57046;45.988;18.664;2023-03-18T03:20:39;100997.88;;;1.73;70.42
69772;BME280;57046;45.988;18.664;2023-03-18T03:23:06;101009.31;;;1.74;71.20
69772;BME280;57046;45.988;18.664;2023-03-18T03:25:32;101003.44;;;1.72;71.50
69772;BME280;57046;45.988;18.664;2023-03-18T03:27:57;100999.16;;;1.71;71.73
69772;BME280;57046;45.988;18.664;2023-03-18T03:30:23;101000.66;;;1.62;72.23
69772;BME280;57046;45.988;18.664;2023-03-18T03:32:49;100999.84;;;1.61;72.96
69772;BME280;57046;45.988;18.664;2023-03-18T03:35:16;101010.59;;;1.66;72.31
69772;BME280;57046;45.988;18.664;2023-03-18T03:37:42;101016.09;;;1.60;72.60
69772;BME280;57046;45.988;18.664;2023-03-18T03:40:09;101010.19;;;1.58;73.10
69772;BME280;57046;45.988;18.664;2023-03-18T03:42:35;101017.38;;;1.57;73.54
69772;BME280;57046;45.988;18.664;2023-03-18T03:45:01;101013.88;;;1.57;73.19
69772;BME280;57046;45.988;18.664;2023-03-18T03:47:26;101009.88;;;1.54;73.47
69772;BME280;57046;45.988;18.664;2023-03-18T03:49:52;101018.63;;;1.49;73.85
69772;BME280;57046;45.988;18.664;2023-03-18T03:52:17;101018.03;;;1.47;72.78
69772;BME280;57046;45.988;18.664;2023-03-18T03:54:43;101018.84;;;1.48;72.75
69772;BME280;57046;45.988;18.664;2023-03-18T03:57:08;101018.75;;;1.43;72.68
69772;BME280;57046;45.988;18.664;2023-03-18T03:59:34;101020.88;;;1.41;73.08
69772;BME280;57046;45.988;18.664;2023-03-18T04:01:59;101025.66;;;1.39;72.62
69772;BME280;57046;45.988;18.664;2023-03-18T04:04:24;101027.19;;;1.35;73.07
69772;BME280;57046;45.988;18.664;2023-03-18T04:06:50;101029.13;;;1.39;72.33
69772;BME280;57046;45.988;18.664;2023-03-18T04:09:15;101030.50;;;1.42;71.93
69772;BME280;57046;45.988;18.664;2023-03-18T04:11:40;101025.56;;;1.34;73.12
69772;BME280;57046;45.988;18.664;2023-03-18T04:14:06;101020.75;;;1.31;73.22
69772;BME280;57046;45.988;18.664;2023-03-18T04:16:31;101028.91;;;1.24;73.69
69772;BME280;57046;45.988;18.664;2023-03-18T04:18:56;101017.88;;;1.16;73.21
69772;BME280;57046;45.988;18.664;2023-03-18T04:21:22;101025.44;;;1.24;72.96
69772;BME280;57046;45.988;18.664;2023-03-18T04:23:47;101026.47;;;1.23;73.01
69772;BME280;57046;45.988;18.664;2023-03-18T04:26:12;101023.34;;;1.26;72.87
69772;BME280;57046;45.988;18.664;2023-03-18T04:28:38;101029.72;;;1.25;73.34
69772;BME280;57046;45.988;18.664;2023-03-18T04:31:03;101028.81;;;1.19;73.73
69772;BME280;57046;45.988;18.664;2023-03-18T04:33:29;101033.84;;;1.16;73.86
69772;BME280;57046;45.988;18.664;2023-03-18T04:35:54;101030.84;;;1.12;74.35
69772;BME280;57046;45.988;18.664;2023-03-18T04:38:19;101041.19;;;1.09;74.61
69772;BME280;57046;45.988;18.664;2023-03-18T04:40:45;101039.56;;;1.08;74.73
69772;BME280;57046;45.988;18.664;2023-03-18T04:43:10;101038.25;;;1.10;74.55
69772;BME280;57046;45.988;18.664;2023-03-18T04:45:36;101036.63;;;1.09;74.86
69772;BME280;57046;45.988;18.664;2023-03-18T04:48:01;101036.31;;;1.06;74.47
69772;BME280;57046;45.988;18.664;2023-03-18T04:50:26;101034.22;;;1.08;74.56
69772;BME280;57046;45.988;18.664;2023-03-18T04:52:52;101013.13;;;1.01;74.61
69772;BME280;57046;45.988;18.664;2023-03-18T04:55:17;101043.56;;;1.10;74.86
69772;BME280;57046;45.988;18.664;2023-03-18T04:57:42;101030.75;;;1.07;74.89
69772;BME280;57046;45.988;18.664;2023-03-18T05:00:10;101031.00;;;1.06;74.74
69772;BME280;57046;45.988;18.664;2023-03-18T05:02:37;101039.41;;;0.97;74.60
69772;BME280;57046;45.988;18.664;2023-03-18T05:05:03;101042.94;;;1.03;74.37
69772;BME280;57046;45.988;18.664;2023-03-18T05:07:28;101053.03;;;1.01;74.73
69772;BME280;57046;45.988;18.664;2023-03-18T05:09:54;101040.28;;;1.03;74.47
69772;BME280;57046;45.988;18.664;2023-03-18T05:12:19;101050.91;;;1.03;74.91
69772;BME280;57046;45.988;18.664;2023-03-18T05:14:44;101062.91;;;1.06;74.58
69772;BME280;57046;45.988;18.664;2023-03-18T05:17:11;100997.00;;;0.58;75.49
69772;BME280;57046;45.988;18.664;2023-03-18T05:19:36;101057.16;;;1.09;75.08
69772;BME280;57046;45.988;18.664;2023-03-18T05:22:02;101070.69;;;1.07;75.61
69772;BME280;57046;45.988;18.664;2023-03-18T05:24:27;101060.84;;;1.08;75.30
69772;BME280;57046;45.988;18.664;2023-03-18T05:26:52;101064.06;;;1.10;76.08
69772;BME280;57046;45.988;18.664;2023-03-18T05:29:18;101051.25;;;1.07;75.30
69772;BME280;57046;45.988;18.664;2023-03-18T05:31:43;101074.53;;;1.16;74.90
69772;BME280;57046;45.988;18.664;2023-03-18T05:34:08;101067.69;;;1.20;74.42
69772;BME280;57046;45.988;18.664;2023-03-18T05:36:34;101075.66;;;1.20;74.97
69772;BME280;57046;45.988;18.664;2023-03-18T05:38:59;101067.19;;;1.23;75.70
69772;BME280;57046;45.988;18.664;2023-03-18T05:41:24;101063.50;;;1.24;75.84
69772;BME280;57046;45.988;18.664;2023-03-18T05:43:50;101073.09;;;1.25;75.65
69772;BME280;57046;45.988;18.664;2023-03-18T05:46:15;101076.09;;;1.29;76.53
69772;BME280;57046;45.988;18.664;2023-03-18T05:48:41;101054.22;;;1.27;77.06
69772;BME280;57046;45.988;18.664;2023-03-18T05:51:06;101066.84;;;1.36;76.75
69772;BME280;57046;45.988;18.664;2023-03-18T05:53:32;101069.34;;;1.43;76.26
69772;BME280;57046;45.988;18.664;2023-03-18T05:55:57;101074.53;;;1.49;76.19
69772;BME280;57046;45.988;18.664;2023-03-18T05:58:22;101061.53;;;1.53;75.16
69772;BME280;57046;45.988;18.664;2023-03-18T06:00:48;101072.06;;;1.65;75.69
69772;BME280;57046;45.988;18.664;2023-03-18T06:03:13;101069.66;;;1.85;75.19
69772;BME280;57046;45.988;18.664;2023-03-18T06:05:39;101073.47;;;2.11;73.66
69772;BME280;57046;45.988;18.664;2023-03-18T06:08:04;101071.72;;;2.21;74.02
69772;BME280;57046;45.988;18.664;2023-03-18T06:10:29;101074.78;;;2.35;73.01
69772;BME280;57046;45.988;18.664;2023-03-18T06:12:55;101081.00;;;2.40;72.42
69772;BME280;57046;45.988;18.664;2023-03-18T06:15:21;101070.34;;;2.40;72.07
69772;BME280;57046;45.988;18.664;2023-03-18T06:17:47;101079.81;;;2.53;71.99
69772;BME280;57046;45.988;18.664;2023-03-18T06:20:13;101078.78;;;2.59;71.70
69772;BME280;57046;45.988;18.664;2023-03-18T06:22:39;101086.91;;;2.69;72.07
69772;BME280;57046;45.988;18.664;2023-03-18T06:25:05;101081.91;;;2.78;72.06
69772;BME280;57046;45.988;18.664;2023-03-18T06:27:30;101079.59;;;2.86;71.94
69772;BME280;57046;45.988;18.664;2023-03-18T06:29:56;101083.44;;;2.95;71.08
69772;BME280;57046;45.988;18.664;2023-03-18T06:32:21;101087.00;;;3.06;70.74
69772;BME280;57046;45.988;18.664;2023-03-18T06:34:47;101089.97;;;3.15;70.32
69772;BME280;57046;45.988;18.664;2023-03-18T06:37:12;101073.63;;;3.06;70.39
69772;BME280;57046;45.988;18.664;2023-03-18T06:39:37;101090.88;;;3.25;73.33
69772;BME280;57046;45.988;18.664;2023-03-18T06:42:03;101099.72;;;3.31;70.92
69772;BME280;57046;45.988;18.664;2023-03-18T06:44:28;101092.28;;;3.38;69.70
69772;BME280;57046;45.988;18.664;2023-03-18T06:46:53;101083.81;;;3.46;70.44
69772;BME280;57046;45.988;18.664;2023-03-18T06:49:19;101087.31;;;3.51;70.13
69772;BME280;57046;45.988;18.664;2023-03-18T06:51:44;101094.03;;;3.59;70.05
69772;BME280;57046;45.988;18.664;2023-03-18T06:54:10;101101.38;;;3.74;68.91
69772;BME280;57046;45.988;18.664;2023-03-18T06:56:36;101104.84;;;3.79;70.51
69772;BME280;57046;45.988;18.664;2023-03-18T06:59:02;101096.66;;;3.91;69.47
69772;BME280;57046;45.988;18.664;2023-03-18T07:01:27;101081.66;;;3.95;69.61
69772;BME280;57046;45.988;18.664;2023-03-18T07:03:53;101101.00;;;4.07;69.02
69772;BME280;57046;45.988;18.664;2023-03-18T07:06:18;101102.91;;;4.17;69.91
69772;BME280;57046;45.988;18.664;2023-03-18T07:08:43;101101.34;;;4.31;70.29
69772;BME280;57046;45.988;18.664;2023-03-18T07:11:09;101060.19;;;4.37;68.67
69772;BME280;57046;45.988;18.664;2023-03-18T07:13:34;101106.00;;;4.71;68.43
69772;BME280;57046;45.988;18.664;2023-03-18T07:16:00;101098.03;;;4.86;67.69
69772;BME280;57046;45.988;18.664;2023-03-18T07:18:26;101101.78;;;4.95;69.08
69772;BME280;57046;45.988;18.664;2023-03-18T07:20:51;101089.72;;;5.12;66.95
69772;BME280;57046;45.988;18.664;2023-03-18T07:23:17;101087.59;;;5.20;67.96
69772;BME280;57046;45.988;18.664;2023-03-18T07:25:42;101091.63;;;5.27;67.72
69772;BME280;57046;45.988;18.664;2023-03-18T07:28:07;101094.00;;;5.49;68.40
69772;BME280;57046;45.988;18.664;2023-03-18T07:30:33;101059.38;;;5.62;67.10
69772;BME280;57046;45.988;18.664;2023-03-18T07:32:58;101099.81;;;6.01;65.57
69772;BME280;57046;45.988;18.664;2023-03-18T07:35:25;101100.03;;;6.15;65.67
69772;BME280;57046;45.988;18.664;2023-03-18T07:37:50;101106.16;;;6.21;65.70
69772;BME280;57046;45.988;18.664;2023-03-18T07:40:16;101088.97;;;6.27;65.16
69772;BME280;57046;45.988;18.664;2023-03-18T07:42:41;101100.75;;;6.36;65.55
69772;BME280;57046;45.988;18.664;2023-03-18T07:45:07;101108.50;;;6.42;66.01
69772;BME280;57046;45.988;18.664;2023-03-18T07:47:33;101112.72;;;6.53;65.28
69772;BME280;57046;45.988;18.664;2023-03-18T07:49:59;101112.41;;;6.65;65.08
69772;BME280;57046;45.988;18.664;2023-03-18T07:52:24;101112.31;;;6.80;65.83
69772;BME280;57046;45.988;18.664;2023-03-18T07:54:50;101098.34;;;6.83;66.17
69772;BME280;57046;45.988;18.664;2023-03-18T07:57:15;101107.06;;;7.04;66.27
69772;BME280;57046;45.988;18.664;2023-03-18T07:59:41;101101.22;;;7.26;64.92
69772;BME280;57046;45.988;18.664;2023-03-18T08:02:06;101112.38;;;7.43;64.60
69772;BME280;57046;45.988;18.664;2023-03-18T08:04:32;101119.22;;;7.59;63.94
69772;BME280;57046;45.988;18.664;2023-03-18T08:06:57;101123.59;;;7.79;63.70
69772;BME280;57046;45.988;18.664;2023-03-18T08:09:23;101118.13;;;8.12;61.83
69772;BME280;57046;45.988;18.664;2023-03-18T08:11:48;101118.41;;;8.35;61.61
69772;BME280;57046;45.988;18.664;2023-03-18T08:14:14;101122.22;;;8.71;59.40
69772;BME280;57046;45.988;18.664;2023-03-18T08:16:39;101110.31;;;8.77;57.09
69772;BME280;57046;45.988;18.664;2023-03-18T08:19:05;101119.38;;;9.18;55.78
69772;BME280;57046;45.988;18.664;2023-03-18T08:21:30;101119.34;;;9.37;55.82
69772;BME280;57046;45.988;18.664;2023-03-18T08:23:55;101114.88;;;9.46;56.84
69772;BME280;57046;45.988;18.664;2023-03-18T08:26:21;101112.47;;;9.45;56.33
69772;BME280;57046;45.988;18.664;2023-03-18T08:28:46;101112.50;;;9.58;56.35
69772;BME280;57046;45.988;18.664;2023-03-18T08:31:11;101115.34;;;9.81;55.62
69772;BME280;57046;45.988;18.664;2023-03-18T08:33:37;101118.16;;;9.89;54.22
69772;BME280;57046;45.988;18.664;2023-03-18T08:36:02;101120.75;;;10.08;53.54
69772;BME280;57046;45.988;18.664;2023-03-18T08:38:28;101095.88;;;10.25;52.46
69772;BME280;57046;45.988;18.664;2023-03-18T08:40:53;101106.84;;;10.42;52.18
69772;BME280;57046;45.988;18.664;2023-03-18T08:43:18;101107.38;;;10.44;52.64
69772;BME280;57046;45.988;18.664;2023-03-18T08:45:44;101059.94;;;10.24;52.62
69772;BME280;57046;45.988;18.664;2023-03-18T08:48:09;101118.44;;;10.69;51.09
69772;BME280;57046;45.988;18.664;2023-03-18T08:50:35;101114.22;;;10.77;51.26
69772;BME280;57046;45.988;18.664;2023-03-18T08:53:01;101114.66;;;10.93;50.52
69772;BME280;57046;45.988;18.664;2023-03-18T08:55:30;101113.03;;;11.05;50.88
69772;BME280;57046;45.988;18.664;2023-03-18T08:57:56;101106.13;;;11.21;49.43
69772;BME280;57046;45.988;18.664;2023-03-18T09:00:21;101118.59;;;11.31;49.56
69772;BME280;57046;45.988;18.664;2023-03-18T09:02:47;101117.97;;;11.56;49.53
69772;BME280;57046;45.988;18.664;2023-03-18T09:05:13;101112.41;;;11.61;49.41
69772;BME280;57046;45.988;18.664;2023-03-18T09:07:38;101114.44;;;11.78;48.94
69772;BME280;57046;45.988;18.664;2023-03-18T09:10:04;101109.88;;;11.87;49.36
69772;BME280;57046;45.988;18.664;2023-03-18T09:12:29;101112.31;;;11.97;49.61
69772;BME280;57046;45.988;18.664;2023-03-18T09:14:55;101111.06;;;12.12;48.85
69772;BME280;57046;45.988;18.664;2023-03-18T09:17:20;101109.50;;;12.19;48.86
69772;BME280;57046;45.988;18.664;2023-03-18T09:19:45;101107.31;;;12.30;48.58
69772;BME280;57046;45.988;18.664;2023-03-18T09:22:11;101108.47;;;12.46;47.89
69772;BME280;57046;45.988;18.664;2023-03-18T09:24:36;101104.66;;;12.47;47.87
69772;BME280;57046;45.988;18.664;2023-03-18T09:27:02;101103.03;;;12.46;46.77
69772;BME280;57046;45.988;18.664;2023-03-18T09:29:27;101104.19;;;12.54;47.31
69772;BME280;57046;45.988;18.664;2023-03-18T09:31:52;101103.06;;;12.63;46.75
69772;BME280;57046;45.988;18.664;2023-03-18T09:34:18;101095.13;;;12.75;45.81
69772;BME280;57046;45.988;18.664;2023-03-18T09:36:43;101101.66;;;12.92;45.91
69772;BME280;57046;45.988;18.664;2023-03-18T09:39:08;101100.84;;;13.08;45.45
69772;BME280;57046;45.988;18.664;2023-03-18T09:44:23;101095.75;;;13.33;44.30
69772;BME280;57046;45.988;18.664;2023-03-18T09:52:43;101094.06;;;13.66;42.03
69772;BME280;57046;45.988;18.664;2023-03-18T09:58:14;101095.50;;;13.63;41.83
69772;BME280;57046;45.988;18.664;2023-03-18T10:00:40;101092.09;;;13.75;42.22
69772;BME280;57046;45.988;18.664;2023-03-18T10:06:13;101080.72;;;13.90;42.21
69772;BME280;57046;45.988;18.664;2023-03-18T10:11:18;101074.16;;;14.20;41.06
69772;BME280;57046;45.988;18.664;2023-03-18T10:16:29;101036.84;;;14.00;41.97
69772;BME280;57046;45.988;18.664;2023-03-18T10:18:56;101082.44;;;14.53;42.15
69772;BME280;57046;45.988;18.664;2023-03-18T10:26:55;101057.56;;;14.84;40.55
69772;BME280;57046;45.988;18.664;2023-03-18T10:29:39;101069.97;;;14.94;40.40
69772;BME280;57046;45.988;18.664;2023-03-18T10:37:40;101073.75;;;15.01;41.00
69772;BME280;57046;45.988;18.664;2023-03-18T10:40:15;101065.16;;;15.11;40.21
69772;BME280;57046;45.988;18.664;2023-03-18T10:42:41;101068.47;;;15.17;38.74
69772;BME280;57046;45.988;18.664;2023-03-18T10:45:30;101068.50;;;15.29;38.38
69772;BME280;57046;45.988;18.664;2023-03-18T10:48:09;101060.56;;;15.24;37.86
69772;BME280;57046;45.988;18.664;2023-03-18T10:50:42;101058.31;;;15.38;39.10
69772;BME280;57046;45.988;18.664;2023-03-18T10:53:16;101060.75;;;15.52;35.84
69772;BME280;57046;45.988;18.664;2023-03-18T10:55:56;101052.63;;;15.64;36.79
69772;BME280;57046;45.988;18.664;2023-03-18T10:58:23;101046.72;;;15.74;36.17
69772;BME280;57046;45.988;18.664;2023-03-18T11:00:48;101041.16;;;15.83;36.24
69772;BME280;57046;45.988;18.664;2023-03-18T11:03:26;101037.72;;;15.86;35.11
69772;BME280;57046;45.988;18.664;2023-03-18T11:05:58;101039.81;;;15.89;34.69
69772;BME280;57046;45.988;18.664;2023-03-18T11:08:36;101033.88;;;15.87;34.34
69772;BME280;57046;45.988;18.664;2023-03-18T11:11:44;101034.53;;;15.96;35.18
69772;BME280;57046;45.988;18.664;2023-03-18T11:14:17;101021.03;;;16.11;34.89
69772;BME280;57046;45.988;18.664;2023-03-18T11:16:55;101018.38;;;16.27;35.30
69772;BME280;57046;45.988;18.664;2023-03-18T11:22:16;101010.72;;;16.45;33.25
69772;BME280;57046;45.988;18.664;2023-03-18T11:24:42;101006.50;;;16.47;32.13
69772;BME280;57046;45.988;18.664;2023-03-18T11:29:41;100997.28;;;16.64;34.16
69772;BME280;57046;45.988;18.664;2023-03-18T11:32:22;100998.03;;;16.76;33.33
69772;BME280;57046;45.988;18.664;2023-03-18T11:34:54;100989.94;;;16.80;32.40
69772;BME280;57046;45.988;18.664;2023-03-18T11:37:19;100991.88;;;16.79;33.92
69772;BME280;57046;45.988;18.664;2023-03-18T11:39:45;100987.44;;;16.75;32.78
69772;BME280;57046;45.988;18.664;2023-03-18T11:42:19;100987.13;;;16.76;33.65
69772;BME280;57046;45.988;18.664;2023-03-18T11:44:45;100990.56;;;16.89;34.11
69772;BME280;57046;45.988;18.664;2023-03-18T11:47:12;100983.66;;;17.07;34.83
69772;BME280;57046;45.988;18.664;2023-03-18T11:49:39;100986.81;;;17.09;34.05
69772;BME280;57046;45.988;18.664;2023-03-18T12:06:30;100961.13;;;17.42;32.92
69772;BME280;57046;45.988;18.664;2023-03-18T12:09:29;100955.03;;;17.48;34.17
69772;BME280;57046;45.988;18.664;2023-03-18T12:17:15;100961.25;;;17.80;32.52
69772;BME280;57046;45.988;18.664;2023-03-18T12:36:30;100939.66;;;18.48;31.04
69772;BME280;57046;45.988;18.664;2023-03-18T12:39:11;100943.06;;;18.42;31.75
69772;BME280;57046;45.988;18.664;2023-03-18T12:46:56;100935.72;;;18.26;30.53
69772;BME280;57046;45.988;18.664;2023-03-18T12:49:40;100939.94;;;18.24;31.81
69772;BME280;57046;45.988;18.664;2023-03-18T12:54:50;100919.72;;;18.28;30.32
69772;BME280;57046;45.988;18.664;2023-03-18T12:57:31;100939.19;;;18.62;30.72
69772;BME280;57046;45.988;18.664;2023-03-18T13:00:07;100948.56;;;18.61;30.55
69772;BME280;57046;45.988;18.664;2023-03-18T13:05:40;100938.31;;;19.00;31.58
69772;BME280;57046;45.988;18.664;2023-03-18T13:11:10;100936.84;;;19.06;30.65
69772;BME280;57046;45.988;18.664;2023-03-18T13:13:41;100937.66;;;19.06;31.26
69772;BME280;57046;45.988;18.664;2023-03-18T13:16:08;100923.34;;;18.94;30.75
69772;BME280;57046;45.988;18.664;2023-03-18T13:18:40;100934.13;;;19.06;31.27
69772;BME280;57046;45.988;18.664;2023-03-18T13:21:12;100924.41;;;19.08;30.77
69772;BME280;57046;45.988;18.664;2023-03-18T13:26:51;100916.03;;;19.24;30.55
69772;BME280;57046;45.988;18.664;2023-03-18T13:37:31;100915.50;;;19.15;30.79
69772;BME280;57046;45.988;18.664;2023-03-18T13:42:48;100906.94;;;19.43;31.05
69772;BME280;57046;45.988;18.664;2023-03-18T13:45:31;100905.81;;;19.21;29.73
69772;BME280;57046;45.988;18.664;2023-03-18T13:48:04;100901.97;;;19.25;30.30
69772;BME280;57046;45.988;18.664;2023-03-18T13:50:32;100903.84;;;19.44;29.96
69772;BME280;57046;45.988;18.664;2023-03-18T13:52:59;100899.25;;;19.25;29.87
69772;BME280;57046;45.988;18.664;2023-03-18T13:55:32;100896.59;;;19.32;29.93
69772;BME280;57046;45.988;18.664;2023-03-18T14:00:34;100896.44;;;19.22;31.12
69772;BME280;57046;45.988;18.664;2023-03-18T14:03:16;100885.31;;;19.38;30.91
69772;BME280;57046;45.988;18.664;2023-03-18T14:05:44;100885.31;;;19.38;31.26
69772;BME280;57046;45.988;18.664;2023-03-18T14:18:00;100868.28;;;19.25;30.92
69772;BME280;57046;45.988;18.664;2023-03-18T14:20:04;100866.75;;;19.01;32.26
69772;BME280;57046;45.988;18.664;2023-03-18T14:22:37;100867.22;;;19.33;31.83
69772;BME280;57046;45.988;18.664;2023-03-18T14:27:50;100868.97;;;19.41;30.75
69772;BME280;57046;45.988;18.664;2023-03-18T14:35:55;100870.59;;;19.46;30.01
69772;BME280;57046;45.988;18.664;2023-03-18T14:38:48;100863.63;;;19.29;29.68
69772;BME280;57046;45.988;18.664;2023-03-18T14:41:23;100856.94;;;19.49;28.97
69772;BME280;57046;45.988;18.664;2023-03-18T14:44:02;100858.72;;;19.38;29.42
69772;BME280;57046;45.988;18.664;2023-03-18T14:46:33;100822.47;;;19.48;29.24
69772;BME280;57046;45.988;18.664;2023-03-18T14:49:01;100852.91;;;19.43;29.37
69772;BME280;57046;45.988;18.664;2023-03-18T14:51:28;100846.94;;;19.64;29.44
69772;BME280;57046;45.988;18.664;2023-03-18T14:54:05;100816.19;;;19.48;28.55